Brinkhaven, Ohio
Current Conditions -  °F | °C
As of 3:15 PM on Friday 31 Oct 2014 (Local Time) from K4I3 Reporting Station
Moderate Rain Moderate Rain  
Wind Chill: 39°   Ceiling: 1100
Heat Index: 43°   Visibility: 3mi
Dew Point: 41°   Wind: 6mph
Humidity: 93%   Direction: 230°SW
Pressure: 29.84"   Gusts: NA
Location:  40.48°N, 82.15°W
Report Text: K4I3 311915Z AUTO 23005KT 3SM RA SCT005 BKN011 OVC029 06/05 A2984 RMK AO2
Loading
Personal Weather Stations






























Interactive Weather Map
Tropical Storm Tracking
New forecast layout! Learn more

10-Day Weather Forecast

Advertisements
Track Severe Weather on mobile